Irenes Remedy — A8WG3 — position and weather

sailwx.info

Track history (hours):
 
Tides and Currents Weather Stations Pressure Air Temp Water Temp Dewpoint Dewpoint Depression Visibility Wind Speed Wind Dir Waves Ship Positions

Irenes Remedy

Last reported at 2018-Jun-23 06:03 UTC. Time now 2018-Jun-24 05:17 UTC.
Position N 27°54' W 013°42'.

Length 222 m; draft 9.1 m.

Type: Cargo ship. MMSI: 636014740.

Date/timePositionNaut miles runAvg speedWind from/ knotsBaromVisibWave heightAir tempDewpointWater temp
2018-Jun-23 06:03N 27°54' W 013°42'720.6
2018-Jun-23 05:42N 27°59' W 013°36'2120.5
2018-Jun-23 04:40N 28°16' W 013°22'1320.4
2018-Jun-23 04:02N 28°27' W 013°14'  
2018-Jun-20 12:53N 38°14' W 009°58'819.9
2018-Jun-20 12:30N 38°21' W 009°60'1019.8
2018-Jun-20 12:00N 38°31' W 010°03'2019.6
2018-Jun-20 10:59N 38°51' W 010°06'919.9
2018-Jun-20 10:31N 39°00' W 010°06'1019.5
2018-Jun-20 10:00N 39°10' W 010°06'1019.7
2018-Jun-20 09:30N 39°20' W 010°06'1119.5
2018-Jun-20 08:57N 39°31' W 010°05'67817.3
2018-Jun-18 17:48N 49°46' W 003°26'517.6
2018-Jun-18 17:30N 49°48' W 003°19'1318.6
2018-Jun-18 16:47N 49°55' W 003°01'518.9
2018-Jun-18 16:30N 49°57' W 002°53'919.1
2018-Jun-18 16:00N 49°60' W 002°39'11015.9
2018-Jun-18 09:04N 50°29' E 000°07'717.9
2018-Jun-18 08:41N 50°31' E 000°17'418.1
2018-Jun-18 08:29N 50°33' E 000°22'918.3
2018-Jun-18 08:01N 50°37' E 000°34'918.3
2018-Jun-18 07:30N 50°42' E 000°46'918.2
2018-Jun-18 07:00N 50°47' E 000°59'917.7
2018-Jun-18 06:30N 50°52' E 001°10'817.1
2018-Jun-18 06:01N 50°57' E 001°21'817.0
2018-Jun-18 05:31N 51°03' E 001°31'815.7
2018-Jun-18 05:01N 51°09' E 001°38'815.5
2018-Jun-18 04:30N 51°15' E 001°47'815.6
2018-Jun-18 04:00N 51°21' E 001°53'816.1
2018-Jun-18 03:31N 51°28' E 001°59'816.4
2018-Jun-18 03:00N 51°34' E 002°09'1217.1
2018-Jun-18 02:19N 51°43' E 002°22'24617.3
2018-Jun-17 12:05N 54°01' E 008°00'1814.7
2018-Jun-17 10:50N 53°58' E 008°31'514.8
2018-Jun-17 10:30N 53°57' E 008°39'815.9
2018-Jun-17 10:00N 53°50' E 008°48'816.9
2018-Jun-17 09:30N 53°52' E 009°02'714.1
2018-Jun-17 09:00N 53°53' E 009°14'714.8
2018-Jun-17 08:30N 53°48' E 009°23'714.2
2018-Jun-17 08:00N 53°42' E 009°30'713.7
2018-Jun-17 07:30N 53°36' E 009°36'612.7
2018-Jun-17 07:01N 53°34' E 009°46'5 9.9
2018-Jun-17 06:30N 53°33' E 009°54'1 1.2
2018-Jun-17 06:00N 53°32' E 009°55'0 0.0
2018-Jun-17 05:30N 53°32' E 009°55'0 0.0
2018-Jun-17 05:00N 53°32' E 009°55'0 0.0
2018-Jun-17 04:30N 53°32' E 009°55'0 0.0
2018-Jun-17 04:00N 53°32' E 009°55'0 0.0
2018-Jun-17 03:30N 53°32' E 009°55'0 0.0
2018-Jun-17 03:00N 53°32' E 009°55'0 0.0
2018-Jun-17 02:30N 53°32' E 009°55'0 0.0
2018-Jun-17 02:00N 53°32' E 009°55'0 0.0
2018-Jun-17 01:30N 53°32' E 009°55'0 0.0
2018-Jun-17 01:00N 53°32' E 009°55'0 0.0
2018-Jun-17 00:30N 53°32' E 009°55'0 0.0
2018-Jun-17 00:00N 53°32' E 009°55'0 0.0
2018-Jun-16 23:30N 53°32' E 009°55'0 0.0
2018-Jun-16 23:00N 53°32' E 009°55'0 0.0
2018-Jun-16 22:30N 53°32' E 009°55'0 0.0
2018-Jun-16 22:00N 53°32' E 009°55'0 0.0
2018-Jun-16 21:30N 53°32' E 009°55'0 0.0
2018-Jun-16 21:00N 53°32' E 009°55'0 0.0
2018-Jun-16 20:30N 53°32' E 009°55'0 0.0
2018-Jun-16 20:00N 53°32' E 009°55'0 0.0
2018-Jun-16 19:30N 53°32' E 009°55'0 0.0
2018-Jun-16 19:00N 53°32' E 009°55'0 0.0
2018-Jun-16 18:30N 53°32' E 009°55'0 0.0
2018-Jun-16 18:00N 53°32' E 009°55'0 0.0
2018-Jun-16 17:30N 53°32' E 009°55'0 0.0
2018-Jun-16 17:00N 53°32' E 009°55'0 0.0
2018-Jun-16 16:30N 53°32' E 009°55'0 0.0
2018-Jun-16 16:00N 53°32' E 009°55'0 0.0
2018-Jun-16 15:30N 53°32' E 009°55'0 0.0
2018-Jun-16 15:00N 53°32' E 009°55'0 0.0
2018-Jun-16 14:30N 53°32' E 009°55'0 0.1
2018-Jun-16 14:00N 53°32' E 009°55'4 7.7
2018-Jun-16 13:30N 53°33' E 009°49'611.6
2018-Jun-16 13:00N 53°34' E 009°39'713.5
2018-Jun-16 12:30N 53°39' E 009°31'713.3
2018-Jun-16 12:00N 53°45' E 009°25'714.9
2018-Jun-16 11:30N 53°51' E 009°19'713.9
2018-Jun-16 11:00N 53°53' E 009°07'713.3
2018-Jun-16 10:31N 53°51' E 008°57'714.2
2018-Jun-16 10:00N 53°51' E 008°45'714.8
2018-Jun-16 09:30N 53°57' E 008°37'918.2
2018-Jun-16 09:00N 53°59' E 008°22'712.0
2018-Jun-16 08:26N 53°59' E 008°10'410.0
2018-Jun-16 08:00N 53°59' E 008°03'5 9.5
2018-Jun-16 07:28N 53°60' E 007°54'6 7.4
2018-Jun-16 06:39N 54°04' E 007°47'0 0.3
2018-Jun-16 06:30N 54°04' E 007°47'0 0.0
2018-Jun-16 05:54N 54°04' E 007°47'0 0.0
2018-Jun-16 03:45N 54°04' E 007°47'0 0.0
2018-Jun-16 03:27N 54°04' E 007°47'0 0.0
2018-Jun-15 22:21N 54°04' E 007°47'0 0.0
2018-Jun-15 20:57N 54°04' E 007°47'0 0.3
2018-Jun-15 20:24N 54°04' E 007°47'0 0.1
2018-Jun-15 19:45N 54°04' E 007°47'0 0.0
2018-Jun-15 19:27N 54°04' E 007°47'0 0.0
2018-Jun-15 19:00N 54°04' E 007°47'88 5.6
2018-Jun-15 03:24N 53°34' E 005°26'511.0
2018-Jun-15 02:58N 53°32' E 005°19'510.9
2018-Jun-15 02:30N 53°31' E 005°11'510.8
2018-Jun-15 02:01N 53°29' E 005°02'510.7
2018-Jun-15 01:30N 53°27' E 004°54'510.8
2018-Jun-15 01:00N 53°25' E 004°46'510.4
2018-Jun-15 00:30N 53°21' E 004°39'810.8
2018-Jun-14 23:48N 53°14' E 004°34'310.8
2018-Jun-14 23:30N 53°11' E 004°31'510.7
2018-Jun-14 23:00N 53°07' E 004°27'610.8
2018-Jun-14 22:27N 53°01' E 004°23'510.7
2018-Jun-14 22:00N 52°57' E 004°19'510.7
2018-Jun-14 21:30N 52°52' E 004°15'510.6
2018-Jun-14 21:00N 52°48' E 004°11'510.7
2018-Jun-14 20:31N 52°44' E 004°06'610.9
2018-Jun-14 19:56N 52°39' E 003°59'611.2
2018-Jun-14 19:24N 52°34' E 003°52'510.9
2018-Jun-14 18:58N 52°31' E 003°47'511.6
2018-Jun-14 18:30N 52°26' E 003°43'612.0
2018-Jun-14 18:00N 52°20' E 003°38'612.4
2018-Jun-14 17:30N 52°15' E 003°34'712.8
2018-Jun-14 16:58N 52°09' E 003°29'712.9
2018-Jun-14 16:27N 52°03' E 003°25'913.0
2018-Jun-14 15:47N 51°54' E 003°23'513.4
2018-Jun-14 15:23N 51°49' E 003°19'612.5
2018-Jun-14 14:53N 51°43' E 003°17'512.8
2018-Jun-14 14:29N 51°39' E 003°21'714.7
2018-Jun-14 14:00N 51°32' E 003°25'714.6
2018-Jun-14 13:30N 51°27' E 003°33'611.4
2018-Jun-14 13:00N 51°25' E 003°42'612.3
2018-Jun-14 12:30N 51°21' E 003°49'611.7
2018-Jun-14 12:00N 51°24' E 003°57'3 6.5
2018-Jun-14 11:30N 51°24' E 004°02'510.5
2018-Jun-14 11:00N 51°24' E 004°11'5 9.5
2018-Jun-14 10:30N 51°20' E 004°16'0 0.4
2018-Jun-14 10:00N 51°20' E 004°16'0 0.0
2018-Jun-14 09:27N 51°20' E 004°16'0 0.0
2018-Jun-14 09:00N 51°20' E 004°16'0 0.0
2018-Jun-14 08:27N 51°20' E 004°16'0 0.0
2018-Jun-14 08:00N 51°20' E 004°16'0 0.0
2018-Jun-14 07:30N 51°20' E 004°16'0 0.0
2018-Jun-14 07:00N 51°20' E 004°16'0 0.0
2018-Jun-14 06:31N 51°20' E 004°16'0 0.0
2018-Jun-14 06:00N 51°20' E 004°16'0 0.0
2018-Jun-14 05:30N 51°20' E 004°16'0 0.0
2018-Jun-14 05:00N 51°20' E 004°16'0 0.0
2018-Jun-14 04:30N 51°20' E 004°16'0 0.0
2018-Jun-14 04:00N 51°20' E 004°16'0 0.0
2018-Jun-14 03:30N 51°20' E 004°16'0 0.0
2018-Jun-14 02:59N 51°20' E 004°16'0 0.0
2018-Jun-14 02:30N 51°20' E 004°16'0 0.1
2018-Jun-14 02:00N 51°20' E 004°16'0 0.0
2018-Jun-14 01:30N 51°20' E 004°16'0 0.0
2018-Jun-14 01:00N 51°20' E 004°16'0 0.0
2018-Jun-14 00:30N 51°20' E 004°16'0 0.0
2018-Jun-14 00:01N 51°20' E 004°16'0 0.0
2018-Jun-13 23:30N 51°20' E 004°16'0 0.0
2018-Jun-13 23:01N 51°20' E 004°16'0 0.0
2018-Jun-13 22:30N 51°20' E 004°16'0 0.0
2018-Jun-13 21:59N 51°20' E 004°16'0 0.0
2018-Jun-13 21:30N 51°20' E 004°16'0 0.0
2018-Jun-13 21:00N 51°20' E 004°16'0 0.0
2018-Jun-13 20:30N 51°20' E 004°16'0 0.0
2018-Jun-13 20:01N 51°20' E 004°16'0 0.0
2018-Jun-13 19:30N 51°20' E 004°16'0 0.0
2018-Jun-13 19:00N 51°20' E 004°16'0 0.0
2018-Jun-13 18:30N 51°20' E 004°16'0 0.0
2018-Jun-13 18:00N 51°20' E 004°16'0 0.0
2018-Jun-13 17:30N 51°20' E 004°16'0 0.0
2018-Jun-13 17:00N 51°20' E 004°16'0 0.0
2018-Jun-13 16:30N 51°20' E 004°16'0 0.0
2018-Jun-13 16:00N 51°20' E 004°16'0 0.0
2018-Jun-13 15:30N 51°20' E 004°16'0 0.0
2018-Jun-13 15:00N 51°20' E 004°16'0 0.0
2018-Jun-13 14:30N 51°20' E 004°16'0 0.0
2018-Jun-13 14:00N 51°20' E 004°16'0 0.0
2018-Jun-13 13:30N 51°20' E 004°16'0 0.0
2018-Jun-13 13:00N 51°20' E 004°16'0 0.0
2018-Jun-13 12:30N 51°20' E 004°16'0 0.0
2018-Jun-13 12:00N 51°20' E 004°16'0 0.0
2018-Jun-13 11:28N 51°20' E 004°16'0 0.0
2018-Jun-13 11:00N 51°20' E 004°16'0 0.0
2018-Jun-13 10:31N 51°20' E 004°16'0 0.3
2018-Jun-13 10:01N 51°20' E 004°16'3 5.4
2018-Jun-13 09:30N 51°22' E 004°13'4 8.4
2018-Jun-13 09:01N 51°22' E 004°07'611.1
2018-Jun-13 08:30N 51°26' E 004°00'611.7
2018-Jun-13 08:01N 51°22' E 003°54'510.9
2018-Jun-13 07:31N 51°22' E 003°46'611.2
2018-Jun-13 07:00N 51°26' E 003°40'5 9.3
2018-Jun-13 06:30N 51°25' E 003°33'  
Track history (hours):
 
Tides and Currents Weather Stations Pressure Air Temp Water Temp Dewpoint Dewpoint Depression Visibility Wind Speed Wind Dir Waves Ship Positions

Irenes Remedy

Last reported at 2018-Jun-23 06:03 UTC. Time now 2018-Jun-24 05:17 UTC.
Position N 27°54' W 013°42'.

Length 222 m; draft 9.1 m.

Type: Cargo ship. MMSI: 636014740.

Date/timePositionNaut miles runAvg speedWind from/ knotsBaromVisibWave heightAir tempDewpointWater temp
2018-Jun-23 06:03N 27°54' W 013°42'720.6
2018-Jun-23 05:42N 27°59' W 013°36'2120.5
2018-Jun-23 04:40N 28°16' W 013°22'1320.4
2018-Jun-23 04:02N 28°27' W 013°14'  
2018-Jun-20 12:53N 38°14' W 009°58'819.9
2018-Jun-20 12:30N 38°21' W 009°60'1019.8
2018-Jun-20 12:00N 38°31' W 010°03'2019.6
2018-Jun-20 10:59N 38°51' W 010°06'919.9
2018-Jun-20 10:31N 39°00' W 010°06'1019.5
2018-Jun-20 10:00N 39°10' W 010°06'1019.7
2018-Jun-20 09:30N 39°20' W 010°06'1119.5
2018-Jun-20 08:57N 39°31' W 010°05'67817.3
2018-Jun-18 17:48N 49°46' W 003°26'517.6
2018-Jun-18 17:30N 49°48' W 003°19'1318.6
2018-Jun-18 16:47N 49°55' W 003°01'518.9
2018-Jun-18 16:30N 49°57' W 002°53'919.1
2018-Jun-18 16:00N 49°60' W 002°39'11015.9
2018-Jun-18 09:04N 50°29' E 000°07'717.9
2018-Jun-18 08:41N 50°31' E 000°17'418.1
2018-Jun-18 08:29N 50°33' E 000°22'918.3
2018-Jun-18 08:01N 50°37' E 000°34'918.3
2018-Jun-18 07:30N 50°42' E 000°46'918.2
2018-Jun-18 07:00N 50°47' E 000°59'917.7
2018-Jun-18 06:30N 50°52' E 001°10'817.1
2018-Jun-18 06:01N 50°57' E 001°21'817.0
2018-Jun-18 05:31N 51°03' E 001°31'815.7
2018-Jun-18 05:01N 51°09' E 001°38'815.5
2018-Jun-18 04:30N 51°15' E 001°47'815.6
2018-Jun-18 04:00N 51°21' E 001°53'816.1
2018-Jun-18 03:31N 51°28' E 001°59'816.4
2018-Jun-18 03:00N 51°34' E 002°09'1217.1
2018-Jun-18 02:19N 51°43' E 002°22'24617.3
2018-Jun-17 12:05N 54°01' E 008°00'1814.7
2018-Jun-17 10:50N 53°58' E 008°31'514.8
2018-Jun-17 10:30N 53°57' E 008°39'815.9
2018-Jun-17 10:00N 53°50' E 008°48'816.9
2018-Jun-17 09:30N 53°52' E 009°02'714.1
2018-Jun-17 09:00N 53°53' E 009°14'714.8
2018-Jun-17 08:30N 53°48' E 009°23'714.2
2018-Jun-17 08:00N 53°42' E 009°30'713.7
2018-Jun-17 07:30N 53°36' E 009°36'612.7
2018-Jun-17 07:01N 53°34' E 009°46'5 9.9
2018-Jun-17 06:30N 53°33' E 009°54'1 1.2
2018-Jun-17 06:00N 53°32' E 009°55'0 0.0
2018-Jun-17 05:30N 53°32' E 009°55'0 0.0
2018-Jun-17 05:00N 53°32' E 009°55'0 0.0
2018-Jun-17 04:30N 53°32' E 009°55'0 0.0
2018-Jun-17 04:00N 53°32' E 009°55'0 0.0
2018-Jun-17 03:30N 53°32' E 009°55'0 0.0
2018-Jun-17 03:00N 53°32' E 009°55'0 0.0
2018-Jun-17 02:30N 53°32' E 009°55'0 0.0
2018-Jun-17 02:00N 53°32' E 009°55'0 0.0
2018-Jun-17 01:30N 53°32' E 009°55'0 0.0
2018-Jun-17 01:00N 53°32' E 009°55'0 0.0
2018-Jun-17 00:30N 53°32' E 009°55'0 0.0
2018-Jun-17 00:00N 53°32' E 009°55'0 0.0
2018-Jun-16 23:30N 53°32' E 009°55'0 0.0
2018-Jun-16 23:00N 53°32' E 009°55'0 0.0
2018-Jun-16 22:30N 53°32' E 009°55'0 0.0
2018-Jun-16 22:00N 53°32' E 009°55'0 0.0
2018-Jun-16 21:30N 53°32' E 009°55'0 0.0
2018-Jun-16 21:00N 53°32' E 009°55'0 0.0
2018-Jun-16 20:30N 53°32' E 009°55'0 0.0
2018-Jun-16 20:00N 53°32' E 009°55'0 0.0
2018-Jun-16 19:30N 53°32' E 009°55'0 0.0
2018-Jun-16 19:00N 53°32' E 009°55'0 0.0
2018-Jun-16 18:30N 53°32' E 009°55'0 0.0
2018-Jun-16 18:00N 53°32' E 009°55'0 0.0
2018-Jun-16 17:30N 53°32' E 009°55'0 0.0
2018-Jun-16 17:00N 53°32' E 009°55'0 0.0
2018-Jun-16 16:30N 53°32' E 009°55'0 0.0
2018-Jun-16 16:00N 53°32' E 009°55'0 0.0
2018-Jun-16 15:30N 53°32' E 009°55'0 0.0
2018-Jun-16 15:00N 53°32' E 009°55'0 0.0
2018-Jun-16 14:30N 53°32' E 009°55'0 0.1
2018-Jun-16 14:00N 53°32' E 009°55'4 7.7
2018-Jun-16 13:30N 53°33' E 009°49'611.6
2018-Jun-16 13:00N 53°34' E 009°39'713.5
2018-Jun-16 12:30N 53°39' E 009°31'713.3
2018-Jun-16 12:00N 53°45' E 009°25'714.9
2018-Jun-16 11:30N 53°51' E 009°19'713.9
2018-Jun-16 11:00N 53°53' E 009°07'713.3
2018-Jun-16 10:31N 53°51' E 008°57'714.2
2018-Jun-16 10:00N 53°51' E 008°45'714.8
2018-Jun-16 09:30N 53°57' E 008°37'918.2
2018-Jun-16 09:00N 53°59' E 008°22'712.0
2018-Jun-16 08:26N 53°59' E 008°10'410.0
2018-Jun-16 08:00N 53°59' E 008°03'5 9.5
2018-Jun-16 07:28N 53°60' E 007°54'6 7.4
2018-Jun-16 06:39N 54°04' E 007°47'0 0.3
2018-Jun-16 06:30N 54°04' E 007°47'0 0.0
2018-Jun-16 05:54N 54°04' E 007°47'0 0.0
2018-Jun-16 03:45N 54°04' E 007°47'0 0.0
2018-Jun-16 03:27N 54°04' E 007°47'0 0.0
2018-Jun-15 22:21N 54°04' E 007°47'0 0.0
2018-Jun-15 20:57N 54°04' E 007°47'0 0.3
2018-Jun-15 20:24N 54°04' E 007°47'0 0.1
2018-Jun-15 19:45N 54°04' E 007°47'0 0.0
2018-Jun-15 19:27N 54°04' E 007°47'0 0.0
2018-Jun-15 19:00N 54°04' E 007°47'88 5.6
2018-Jun-15 03:24N 53°34' E 005°26'511.0
2018-Jun-15 02:58N 53°32' E 005°19'510.9
2018-Jun-15 02:30N 53°31' E 005°11'510.8
2018-Jun-15 02:01N 53°29' E 005°02'510.7
2018-Jun-15 01:30N 53°27' E 004°54'510.8
2018-Jun-15 01:00N 53°25' E 004°46'510.4
2018-Jun-15 00:30N 53°21' E 004°39'810.8
2018-Jun-14 23:48N 53°14' E 004°34'310.8
2018-Jun-14 23:30N 53°11' E 004°31'510.7
2018-Jun-14 23:00N 53°07' E 004°27'610.8
2018-Jun-14 22:27N 53°01' E 004°23'510.7
2018-Jun-14 22:00N 52°57' E 004°19'510.7
2018-Jun-14 21:30N 52°52' E 004°15'510.6
2018-Jun-14 21:00N 52°48' E 004°11'510.7
2018-Jun-14 20:31N 52°44' E 004°06'610.9
2018-Jun-14 19:56N 52°39' E 003°59'611.2
2018-Jun-14 19:24N 52°34' E 003°52'510.9
2018-Jun-14 18:58N 52°31' E 003°47'511.6
2018-Jun-14 18:30N 52°26' E 003°43'612.0
2018-Jun-14 18:00N 52°20' E 003°38'612.4
2018-Jun-14 17:30N 52°15' E 003°34'712.8
2018-Jun-14 16:58N 52°09' E 003°29'712.9
2018-Jun-14 16:27N 52°03' E 003°25'913.0
2018-Jun-14 15:47N 51°54' E 003°23'513.4
2018-Jun-14 15:23N 51°49' E 003°19'612.5
2018-Jun-14 14:53N 51°43' E 003°17'512.8
2018-Jun-14 14:29N 51°39' E 003°21'714.7
2018-Jun-14 14:00N 51°32' E 003°25'714.6
2018-Jun-14 13:30N 51°27' E 003°33'611.4
2018-Jun-14 13:00N 51°25' E 003°42'612.3
2018-Jun-14 12:30N 51°21' E 003°49'611.7
2018-Jun-14 12:00N 51°24' E 003°57'3 6.5
2018-Jun-14 11:30N 51°24' E 004°02'510.5
2018-Jun-14 11:00N 51°24' E 004°11'5 9.5
2018-Jun-14 10:30N 51°20' E 004°16'0 0.4
2018-Jun-14 10:00N 51°20' E 004°16'0 0.0
2018-Jun-14 09:27N 51°20' E 004°16'0 0.0
2018-Jun-14 09:00N 51°20' E 004°16'0 0.0
2018-Jun-14 08:27N 51°20' E 004°16'0 0.0
2018-Jun-14 08:00N 51°20' E 004°16'0 0.0
2018-Jun-14 07:30N 51°20' E 004°16'0 0.0
2018-Jun-14 07:00N 51°20' E 004°16'0 0.0
2018-Jun-14 06:31N 51°20' E 004°16'0 0.0
2018-Jun-14 06:00N 51°20' E 004°16'0 0.0
2018-Jun-14 05:30N 51°20' E 004°16'0 0.0
2018-Jun-14 05:00N 51°20' E 004°16'0 0.0
2018-Jun-14 04:30N 51°20' E 004°16'0 0.0
2018-Jun-14 04:00N 51°20' E 004°16'0 0.0
2018-Jun-14 03:30N 51°20' E 004°16'0 0.0
2018-Jun-14 02:59N 51°20' E 004°16'0 0.0
2018-Jun-14 02:30N 51°20' E 004°16'0 0.1
2018-Jun-14 02:00N 51°20' E 004°16'0 0.0
2018-Jun-14 01:30N 51°20' E 004°16'0 0.0
2018-Jun-14 01:00N 51°20' E 004°16'0 0.0
2018-Jun-14 00:30N 51°20' E 004°16'0 0.0
2018-Jun-14 00:01N 51°20' E 004°16'0 0.0
2018-Jun-13 23:30N 51°20' E 004°16'0 0.0
2018-Jun-13 23:01N 51°20' E 004°16'0 0.0
2018-Jun-13 22:30N 51°20' E 004°16'0 0.0
2018-Jun-13 21:59N 51°20' E 004°16'0 0.0
2018-Jun-13 21:30N 51°20' E 004°16'0 0.0
2018-Jun-13 21:00N 51°20' E 004°16'0 0.0
2018-Jun-13 20:30N 51°20' E 004°16'0 0.0
2018-Jun-13 20:01N 51°20' E 004°16'0 0.0
2018-Jun-13 19:30N 51°20' E 004°16'0 0.0
2018-Jun-13 19:00N 51°20' E 004°16'0 0.0
2018-Jun-13 18:30N 51°20' E 004°16'0 0.0
2018-Jun-13 18:00N 51°20' E 004°16'0 0.0
2018-Jun-13 17:30N 51°20' E 004°16'0 0.0
2018-Jun-13 17:00N 51°20' E 004°16'0 0.0
2018-Jun-13 16:30N 51°20' E 004°16'0 0.0
2018-Jun-13 16:00N 51°20' E 004°16'0 0.0
2018-Jun-13 15:30N 51°20' E 004°16'0 0.0
2018-Jun-13 15:00N 51°20' E 004°16'0 0.0
2018-Jun-13 14:30N 51°20' E 004°16'0 0.0
2018-Jun-13 14:00N 51°20' E 004°16'0 0.0
2018-Jun-13 13:30N 51°20' E 004°16'0 0.0
2018-Jun-13 13:00N 51°20' E 004°16'0 0.0
2018-Jun-13 12:30N 51°20' E 004°16'0 0.0
2018-Jun-13 12:00N 51°20' E 004°16'0 0.0
2018-Jun-13 11:28N 51°20' E 004°16'0 0.0
2018-Jun-13 11:00N 51°20' E 004°16'0 0.0
2018-Jun-13 10:31N 51°20' E 004°16'0 0.3
2018-Jun-13 10:01N 51°20' E 004°16'3 5.4
2018-Jun-13 09:30N 51°22' E 004°13'4 8.4
2018-Jun-13 09:01N 51°22' E 004°07'611.1
2018-Jun-13 08:30N 51°26' E 004°00'611.7
2018-Jun-13 08:01N 51°22' E 003°54'510.9
2018-Jun-13 07:31N 51°22' E 003°46'611.2
2018-Jun-13 07:00N 51°26' E 003°40'5 9.3
2018-Jun-13 06:30N 51°25' E 003°33'  

Dump ship's entire track history